British Tenacity — MDTE9 — position and weather

sailwx.info

Track history (hours):
 
Tides and Currents Weather Stations Pressure Air Temp Water Temp Dewpoint Dewpoint Depression Visibility Wind Speed Wind Dir Waves Ship Positions

British Tenacity

Last reported at 2015-Mar-20 18:33 UTC. Time now 2015-Mar-31 12:43 UTC.
Position N 08°04' W 014°32'.
Warning: this ship's position is 10 days out of date.

Type: Ship (hazmat cat C). MMSI: 235825000.

Date/timePositionNaut miles runAvg speedWind from/ knotsBaromVisibWave heightAir tempDewpointWater temp
2015-Mar-20 18:33N 08°04' W 014°32'1414.3
2015-Mar-20 17:33N 08°13' W 014°43'1514.2
2015-Mar-20 16:32N 08°23' W 014°54'1414.6
2015-Mar-20 15:33N 08°32' W 015°05'1514.5
2015-Mar-20 14:33N 08°42' W 015°16'1514.6
2015-Mar-20 13:33N 08°52' W 015°27'1514.6
2015-Mar-20 12:34N 09°02' W 015°38'  
2015-Mar-17 04:00N 27°00' W 016°30'1623.6 030 / 91020.510.8 16.012.417.0
2015-Mar-17 03:19N 27°16' W 016°32'2715.4
2015-Mar-17 01:33N 27°42' W 016°25'2114.7
2015-Mar-17 00:07N 28°03' W 016°18'1515.1
2015-Mar-16 23:06N 28°15' W 016°07'815.3
2015-Mar-16 22:33N 28°21' W 016°01'1515.1
2015-Mar-16 21:33N 28°33' W 015°50'1514.9
2015-Mar-16 20:33N 28°45' W 015°41'1514.8
2015-Mar-16 19:33N 28°59' W 015°34'1514.7
2015-Mar-16 18:33N 29°12' W 015°27'1515.0
2015-Mar-16 17:33N 29°27' W 015°23'1515.0
2015-Mar-16 16:33N 29°41' W 015°19'1515.0
2015-Mar-16 15:33N 29°56' W 015°14'1515.1
2015-Mar-16 14:33N 30°10' W 015°10'1515.2
2015-Mar-16 13:33N 30°25' W 015°05'1515.2
2015-Mar-16 12:33N 30°40' W 015°01'1515.1
2015-Mar-16 11:33N 30°54' W 014°55'1515.0
2015-Mar-16 10:33N 31°09' W 014°51'1514.9
2015-Mar-16 09:33N 31°23' W 014°47'1514.5
2015-Mar-16 08:33N 31°37' W 014°42'1414.4
2015-Mar-16 07:33N 31°51' W 014°37'1514.6
2015-Mar-16 06:33N 32°05' W 014°33'1514.8
2015-Mar-16 05:33N 32°19' W 014°29'1914.8
2015-Mar-16 04:15N 32°38' W 014°23'2614.9
2015-Mar-16 02:28N 33°04' W 014°15'8714.7
2015-Mar-15 20:31N 34°28' W 013°47'1614.8
2015-Mar-15 19:27N 34°43' W 013°43'15514.9
2015-Mar-15 09:04N 37°13' W 012°53'5814.6
2015-Mar-15 05:04N 38°10' W 012°33'1314.8
2015-Mar-15 04:12N 38°22' W 012°29'  
2015-Mar-12 15:33N 50°08' W 002°05'3214.1
2015-Mar-12 13:18N 50°17' W 001°17'912.1
2015-Mar-12 12:33N 50°19' W 001°03'1110.7
2015-Mar-12 11:33N 50°22' W 000°47'3712.3
2015-Mar-12 08:33N 50°32' E 000°08'1514.2
2015-Mar-12 07:31N 50°35' E 000°31'1313.7
2015-Mar-12 06:34N 50°43' E 000°48'1312.8
2015-Mar-12 05:33N 50°51' E 001°04'1211.7
2015-Mar-12 04:33N 50°59' E 001°18'1010.5
2015-Mar-12 03:33N 51°06' E 001°30'1010.1
2015-Mar-12 02:33N 51°12' E 001°43'1211.8
2015-Mar-12 01:34N 51°22' E 001°52'1413.8
2015-Mar-12 00:33N 51°33' E 002°05'1514.7
2015-Mar-11 23:31N 51°44' E 002°22'1814.2
2015-Mar-11 22:18N 51°58' E 002°40'1013.4
2015-Mar-11 21:33N 52°05' E 002°50'1312.7
2015-Mar-11 20:33N 52°15' E 003°05'1212.2
2015-Mar-11 19:32N 52°24' E 003°18'1211.8
2015-Mar-11 18:34N 52°31' E 003°33'3 2.7
2015-Mar-11 17:26N 52°32' E 003°38'8 9.0
2015-Mar-11 16:33N 52°31' E 003°51'1313.1
2015-Mar-11 15:33N 52°31' E 004°12'1211.9
2015-Mar-11 14:33N 52°28' E 004°31'3 3.4
2015-Mar-11 13:34N 52°28' E 004°37'3 3.4
2015-Mar-11 12:34N 52°27' E 004°42'5 5.1
2015-Mar-11 11:33N 52°24' E 004°49'0 0.1
2015-Mar-11 10:33N 52°24' E 004°49'  
Track history (hours):
 
Tides and Currents Weather Stations Pressure Air Temp Water Temp Dewpoint Dewpoint Depression Visibility Wind Speed Wind Dir Waves Ship Positions

British Tenacity

Last reported at 2015-Mar-20 18:33 UTC. Time now 2015-Mar-31 12:43 UTC.
Position N 08°04' W 014°32'.
Warning: this ship's position is 10 days out of date.

Type: Ship (hazmat cat C). MMSI: 235825000.

Date/timePositionNaut miles runAvg speedWind from/ knotsBaromVisibWave heightAir tempDewpointWater temp
2015-Mar-20 18:33N 08°04' W 014°32'1414.3
2015-Mar-20 17:33N 08°13' W 014°43'1514.2
2015-Mar-20 16:32N 08°23' W 014°54'1414.6
2015-Mar-20 15:33N 08°32' W 015°05'1514.5
2015-Mar-20 14:33N 08°42' W 015°16'1514.6
2015-Mar-20 13:33N 08°52' W 015°27'1514.6
2015-Mar-20 12:34N 09°02' W 015°38'  
2015-Mar-17 04:00N 27°00' W 016°30'1623.6 030 / 91020.510.8 16.012.417.0
2015-Mar-17 03:19N 27°16' W 016°32'2715.4
2015-Mar-17 01:33N 27°42' W 016°25'2114.7
2015-Mar-17 00:07N 28°03' W 016°18'1515.1
2015-Mar-16 23:06N 28°15' W 016°07'815.3
2015-Mar-16 22:33N 28°21' W 016°01'1515.1
2015-Mar-16 21:33N 28°33' W 015°50'1514.9
2015-Mar-16 20:33N 28°45' W 015°41'1514.8
2015-Mar-16 19:33N 28°59' W 015°34'1514.7
2015-Mar-16 18:33N 29°12' W 015°27'1515.0
2015-Mar-16 17:33N 29°27' W 015°23'1515.0
2015-Mar-16 16:33N 29°41' W 015°19'1515.0
2015-Mar-16 15:33N 29°56' W 015°14'1515.1
2015-Mar-16 14:33N 30°10' W 015°10'1515.2
2015-Mar-16 13:33N 30°25' W 015°05'1515.2
2015-Mar-16 12:33N 30°40' W 015°01'1515.1
2015-Mar-16 11:33N 30°54' W 014°55'1515.0
2015-Mar-16 10:33N 31°09' W 014°51'1514.9
2015-Mar-16 09:33N 31°23' W 014°47'1514.5
2015-Mar-16 08:33N 31°37' W 014°42'1414.4
2015-Mar-16 07:33N 31°51' W 014°37'1514.6
2015-Mar-16 06:33N 32°05' W 014°33'1514.8
2015-Mar-16 05:33N 32°19' W 014°29'1914.8
2015-Mar-16 04:15N 32°38' W 014°23'2614.9
2015-Mar-16 02:28N 33°04' W 014°15'8714.7
2015-Mar-15 20:31N 34°28' W 013°47'1614.8
2015-Mar-15 19:27N 34°43' W 013°43'15514.9
2015-Mar-15 09:04N 37°13' W 012°53'5814.6
2015-Mar-15 05:04N 38°10' W 012°33'1314.8
2015-Mar-15 04:12N 38°22' W 012°29'  
2015-Mar-12 15:33N 50°08' W 002°05'3214.1
2015-Mar-12 13:18N 50°17' W 001°17'912.1
2015-Mar-12 12:33N 50°19' W 001°03'1110.7
2015-Mar-12 11:33N 50°22' W 000°47'3712.3
2015-Mar-12 08:33N 50°32' E 000°08'1514.2
2015-Mar-12 07:31N 50°35' E 000°31'1313.7
2015-Mar-12 06:34N 50°43' E 000°48'1312.8
2015-Mar-12 05:33N 50°51' E 001°04'1211.7
2015-Mar-12 04:33N 50°59' E 001°18'1010.5
2015-Mar-12 03:33N 51°06' E 001°30'1010.1
2015-Mar-12 02:33N 51°12' E 001°43'1211.8
2015-Mar-12 01:34N 51°22' E 001°52'1413.8
2015-Mar-12 00:33N 51°33' E 002°05'1514.7
2015-Mar-11 23:31N 51°44' E 002°22'1814.2
2015-Mar-11 22:18N 51°58' E 002°40'1013.4
2015-Mar-11 21:33N 52°05' E 002°50'1312.7
2015-Mar-11 20:33N 52°15' E 003°05'1212.2
2015-Mar-11 19:32N 52°24' E 003°18'1211.8
2015-Mar-11 18:34N 52°31' E 003°33'3 2.7
2015-Mar-11 17:26N 52°32' E 003°38'8 9.0
2015-Mar-11 16:33N 52°31' E 003°51'1313.1
2015-Mar-11 15:33N 52°31' E 004°12'1211.9
2015-Mar-11 14:33N 52°28' E 004°31'3 3.4
2015-Mar-11 13:34N 52°28' E 004°37'3 3.4
2015-Mar-11 12:34N 52°27' E 004°42'5 5.1
2015-Mar-11 11:33N 52°24' E 004°49'0 0.1
2015-Mar-11 10:33N 52°24' E 004°49'  

Dump ship's entire track history